Map

Track Data

SID SEASON NUMBER BASIN SUBBASIN NAME ISO_TIME NATURE LAT LON WMO_WIND WMO_PRES WMO_AGENCY TRACK_TYPE DIST2LAND LANDFALL IFLAG USA_AGENCY USA_ATCF_ID USA_LAT USA_LON USA_RECORD USA_STATUS USA_WIND USA_PRES USA_SSHS USA_R34_NE USA_R34_SE USA_R34_SW USA_R34_NW USA_R50_NE USA_R50_SE USA_R50_SW USA_R50_NW USA_R64_NE USA_R64_SE USA_R64_SW USA_R64_NW USA_POCI USA_ROCI USA_RMW USA_EYE TOKYO_LAT TOKYO_LON TOKYO_GRADE TOKYO_WIND TOKYO_PRES TOKYO_R50_DIR TOKYO_R50_LONG TOKYO_R50_SHORT TOKYO_R30_DIR TOKYO_R30_LONG TOKYO_R30_SHORT TOKYO_LAND CMA_LAT CMA_LON CMA_CAT CMA_WIND CMA_PRES HKO_LAT HKO_LON HKO_CAT HKO_WIND HKO_PRES NEWDELHI_LAT NEWDELHI_LON NEWDELHI_GRADE NEWDELHI_WIND NEWDELHI_PRES NEWDELHI_CI NEWDELHI_DP NEWDELHI_POCI REUNION_LAT REUNION_LON REUNION_TYPE REUNION_WIND REUNION_PRES REUNION_TNUM REUNION_CI REUNION_RMW REUNION_R34_NE REUNION_R34_SE REUNION_R34_SW REUNION_R34_NW REUNION_R50_NE REUNION_R50_SE REUNION_R50_SW REUNION_R50_NW REUNION_R64_NE REUNION_R64_SE REUNION_R64_SW REUNION_R64_NW BOM_LAT BOM_LON BOM_TYPE BOM_WIND BOM_PRES BOM_TNUM BOM_CI BOM_RMW BOM_R34_NE BOM_R34_SE BOM_R34_SW BOM_R34_NW BOM_R50_NE BOM_R50_SE BOM_R50_SW BOM_R50_NW BOM_R64_NE BOM_R64_SE BOM_R64_SW BOM_R64_NW BOM_ROCI BOM_POCI BOM_EYE BOM_POS_METHOD BOM_PRES_METHOD NADI_LAT NADI_LON NADI_CAT NADI_WIND NADI_PRES WELLINGTON_LAT WELLINGTON_LON WELLINGTON_WIND WELLINGTON_PRES DS824_LAT DS824_LON DS824_STAGE DS824_WIND DS824_PRES TD9636_LAT TD9636_LON TD9636_STAGE TD9636_WIND TD9636_PRES TD9635_LAT TD9635_LON TD9635_WIND TD9635_PRES TD9635_ROCI NEUMANN_LAT NEUMANN_LON NEUMANN_CLASS NEUMANN_WIND NEUMANN_PRES MLC_LAT MLC_LON MLC_CLASS MLC_WIND MLC_PRES USA_GUST BOM_GUST BOM_GUST_PER REUNION_GUST REUNION_GUST_PER USA_SEAHGT USA_SEARAD_NE USA_SEARAD_SE USA_SEARAD_SW USA_SEARAD_NW STORM_SPEED STORM_DIR
1947248N13135 1947 63 WP MM JOYCE 1947-09-05 00:00:00 NR 12.5000 134.600 main 973 951 __________O___ -1 12.5000 134.600 2 5 284
1947248N13135 1947 63 WP MM JOYCE 1947-09-05 03:00:00 NR 12.5581 134.361 main 953 921 __________P___ -1 12.5581 134.361 2 5 284
1947248N13135 1947 63 WP MM JOYCE 1947-09-05 06:00:00 NR 12.6129 134.138 main 921 910 __________P___ -1 12.6129 134.138 2 4 284
1947248N13135 1947 63 WP MM JOYCE 1947-09-05 09:00:00 NR 12.6612 133.945 main 902 891 __________P___ -1 12.6612 133.945 2 3 285
1947248N13135 1947 63 WP MM JOYCE 1947-09-05 12:00:00 NR 12.7000 133.800 main 891 881 __________O___ -1 12.7000 133.800 2 2 286
1947248N13135 1947 63 WP MM JOYCE 1947-09-05 15:00:00 NR 12.7294 133.708 main 881 872 __________P___ -1 12.7294 133.708 2 2 292
1947248N13135 1947 63 WP MM JOYCE 1947-09-05 18:00:00 NR 12.7621 133.637 main 872 872 __________P___ -1 12.7621 133.637 2 2 298
1947248N13135 1947 63 WP MM JOYCE 1947-09-05 21:00:00 NR 12.8138 133.548 main 862 854 __________P___ -1 12.8138 133.548 2 3 301
1947248N13135 1947 63 WP MM JOYCE 1947-09-06 00:00:00 NR 12.9000 133.400 main 854 825 __________O___ -1 12.9000 133.400 2 5 299
1947248N13135 1947 63 WP MM JOYCE 1947-09-06 03:00:00 NR 13.0352 133.132 main 825 800 __________P___ -1 13.0352 133.132 2 7 298
1947248N13135 1947 63 WP MM JOYCE 1947-09-06 06:00:00 NR 13.2053 132.803 main 800 769 __________P___ -1 13.2053 132.803 2 8 299
1947248N13135 1947 63 WP MM JOYCE 1947-09-06 09:00:00 NR 13.3977 132.447 main 760 732 __________P___ -1 13.3977 132.447 2 8 300
1947248N13135 1947 63 WP MM JOYCE 1947-09-06 12:00:00 NR 13.6000 132.100 main 732 706 __________O___ -1 13.6000 132.100 2 7 303
1947248N13135 1947 63 WP MM JOYCE 1947-09-06 15:00:00 NR 13.8048 131.811 main 706 687 __________P___ -1 13.8048 131.811 2 7 307
1947248N13135 1947 63 WP MM JOYCE 1947-09-06 18:00:00 NR 14.0148 131.535 main 680 666 __________P___ -1 14.0148 131.535 2 7 308
1947248N13135 1947 63 WP MM JOYCE 1947-09-06 21:00:00 NR 14.2173 131.267 main 666 644 __________P___ -1 14.2173 131.267 2 6 307
1947248N13135 1947 63 WP MM JOYCE 1947-09-07 00:00:00 NR 14.4000 131.000 main 644 618 __________O___ -1 14.4000 131.000 2 6 302
1947248N13135 1947 63 WP MM JOYCE 1947-09-07 03:00:00 NR 14.5383 130.729 main 618 604 __________P___ -1 14.5383 130.729 2 6 296
1947248N13135 1947 63 WP MM JOYCE 1947-09-07 06:00:00 NR 14.6573 130.457 main 609 580 __________P___ -1 14.6573 130.457 2 6 294
1947248N13135 1947 63 WP MM JOYCE 1947-09-07 09:00:00 NR 14.7727 130.182 main 585 563 __________P___ -1 14.7727 130.182 2 6 294
1947248N13135 1947 63 WP MM JOYCE 1947-09-07 12:00:00 NR 14.9000 129.900 main 563 545 __________O___ -1 14.9000 129.900 2 5 290
1947248N13135 1947 63 WP MM JOYCE 1947-09-07 15:00:00 NR 14.9585 129.658 main 551 525 __________P___ -1 14.9585 129.658 2 5 287
1947248N13135 1947 63 WP MM JOYCE 1947-09-07 18:00:00 NR 15.0465 129.401 main 525 514 __________P___ -1 15.0465 129.401 2 6 297
1947248N13135 1947 63 WP MM JOYCE 1947-09-07 21:00:00 NR 15.2364 129.094 main 514 500 __________P___ -1 15.2364 129.094 2 9 309
1947248N13135 1947 63 WP MM JOYCE 1947-09-08 00:00:00 NR 15.6000 128.700 main 500 476 __________O___ -1 15.6000 128.700 2 14 319
1947248N13135 1947 63 WP MM JOYCE 1947-09-08 03:00:00 NR 16.2906 128.132 main 479 477 __________P___ -1 16.2906 128.132 2 24 324
1947248N13135 1947 63 WP MM JOYCE 1947-09-08 06:00:00 TS 17.5097 127.274 main 506 464 O________OPO__ jtwc_wp WP101947 18.0000 127.000 25 -1 18.0000 127.000 TC 25 17.1420 127.479 2 18.0000 127.000 25 1006 180 24 325
1947248N13135 1947 63 WP MM JOYCE 1947-09-08 09:00:00 TS 18.2475 126.686 main 464 412 P________PPP__ WP101947 18.3976 126.603 25 -1 18.3976 126.603 TC 25 18.0222 126.810 2 18.3976 126.603 25 1005 180 17 322
1947248N13135 1947 63 WP MM JOYCE 1947-09-08 12:00:00 TS 18.8000 126.200 main 413 376 O________OOO__ jtwc_wp WP101947 18.8000 126.200 25 -1 18.8000 126.200 TC 25 18.8000 126.200 1 25 18.8000 126.200 25 1005 180 13 318
1947248N13135 1947 63 WP MM JOYCE 1947-09-08 15:00:00 TS 19.2123 125.783 main 379 348 P________PPP__ WP101947 19.2075 125.792 27 -1 19.2075 125.792 TC 27 19.2268 125.757 1 26 19.2075 125.792 27 1004 180 11 316
1947248N13135 1947 63 WP MM JOYCE 1947-09-08 18:00:00 TS 19.5871 125.396 main 352 329 O________OPO__ jtwc_wp WP101947 19.6000 125.400 30 -1 19.6000 125.400 TC 30 19.5483 125.384 1 27 19.6000 125.400 30 1003 180 10 315
1947248N13135 1947 63 WP MM JOYCE 1947-09-08 21:00:00 TS 19.9358 125.026 main 329 322 P________PPP__ WP101947 19.9575 125.020 30 -1 19.9575 125.020 TC 30 19.8707 125.044 1 28 19.9575 125.020 30 1002 210 10 317
1947248N13135 1947 63 WP MM JOYCE 1947-09-09 00:00:00 TS 20.3000 124.700 main 329 328 O________OOO__ jtwc_wp WP101947 20.3000 124.700 30 -1 20.3000 124.700 TC 30 20.3000 124.700 1 30 20.3000 124.700 30 1001 240 9 322
1947248N13135 1947 63 WP MM JOYCE 1947-09-09 03:00:00 TS 20.6255 124.462 main 337 330 P________PPP__ WP101947 20.5146 124.543 32 -1 20.5146 124.543 TC 32 20.9585 124.220 1 31 20.5146 124.543 32 1000 210 10 330
1947248N13135 1947 63 WP MM JOYCE 1947-09-09 06:00:00 TS 21.1841 124.159 main 350 247 O________OPO__ jtwc_wp WP101947 21.0000 124.300 35 0 21.0000 124.300 TC 35 21.7365 123.735 1 32 21.0000 124.300 35 1000 180 19 332
1947248N13135 1947 63 WP MM JOYCE 1947-09-09 09:00:00 TS 22.2587 123.545 main 233 156 P________PPP__ WP101947 22.1463 123.624 35 0 22.1463 123.624 TC 35 22.5961 123.308 1 33 22.1463 123.624 35 1001 150 26 335
1947248N13135 1947 63 WP MM JOYCE 1947-09-09 12:00:00 TS 23.5000 123.000 main 154 101 O________OOO__ jtwc_wp WP101947 23.5000 123.000 35 0 23.5000 123.000 TC 35 23.5000 123.000 2 35 23.5000 123.000 35 1002 120 24 345
1947248N13135 1947 63 WP MM JOYCE 1947-09-09 15:00:00 TS 24.5671 122.884 main 101 90 P________PPP__ WP101947 24.6169 122.893 32 -1 24.6169 122.893 TC 32 24.4175 122.859 2 31 24.6169 122.893 32 1003 120 20 359
1947248N13135 1947 63 WP MM JOYCE 1947-09-09 18:00:00 TS 25.5353 122.965 main 114 114 O________OPO__ jtwc_wp WP101947 25.6000 123.000 30 -1 25.6000 123.000 TC 30 25.3414 122.859 2 27 25.6000 123.000 30 1004 120 18 5
1947248N13135 1947 63 WP MM JOYCE 1947-09-09 21:00:00 TS 26.3976 123.044 main 185 185 P________PPP__ WP101947 26.4402 123.074 25 -1 26.4402 123.074 TC 25 26.2697 122.954 2 23 26.4402 123.074 25 1005 90 17 4
1947248N13135 1947 63 WP MM JOYCE 1947-09-10 00:00:00 TS 27.2000 123.100 main 191 O________OOO__ jtwc_wp WP101947 27.2000 123.100 20 -1 27.2000 123.100 TC 20 27.2000 123.100 1 20 27.2000 123.100 20 1006 60 16 4

Digital Typhoon Data and Search

About IBTrACS Database

This database is a web-friendly format of International Best Track Archive for Climate Stewardship (IBTrACS), a global best track data archive curated by NOAA dating back to 1842.

Updated: 2021-10-27